createdAt,value
2023-05-05T00:02:21.585Z,98790.97
2023-05-05T00:05:30.845Z,98784.34
2023-05-05T00:08:36.503Z,98780.56
2023-05-05T00:11:43.100Z,98777.72
2023-05-05T00:14:48.836Z,98763.78
2023-05-05T00:17:55.259Z,98768.72
2023-05-05T00:21:04.685Z,98762.94
2023-05-05T00:24:11.850Z,98761.59
2023-05-05T00:27:17.538Z,98762.56
2023-05-05T00:30:24.558Z,98766.13
2023-05-05T00:33:30.779Z,98763.53
2023-05-05T00:36:40.249Z,98756.47
2023-05-05T00:39:47.639Z,98754.16
2023-05-05T00:42:54.323Z,98764.22
2023-05-05T00:46:06.356Z,98757.47
2023-05-05T00:49:13.799Z,98760.94
2023-05-05T00:52:22.350Z,98752.75
2023-05-05T00:55:29.057Z,98757.41
2023-05-05T00:58:34.697Z,98764.81
2023-05-05T01:01:41.435Z,98762.22
2023-05-05T01:04:47.005Z,98763.25
2023-05-05T01:08:26.959Z,98754.88
2023-05-05T01:11:45.867Z,98769.34
2023-05-05T01:15:04.437Z,98761.16
2023-05-05T01:18:22.607Z,98768.06
2023-05-05T01:21:36.529Z,98764.47
2023-05-05T01:25:06.167Z,98757.19
2023-05-05T01:28:31.077Z,98751.78
2023-05-05T01:31:55.279Z,98755.25
2023-05-05T01:35:07.444Z,98758.34
2023-05-05T01:38:20.894Z,98755.25
2023-05-05T01:41:33.899Z,98754.88
2023-05-05T01:44:42.151Z,98757.19
2023-05-05T01:47:52.381Z,98751.78
2023-05-05T01:51:00.825Z,98750.78
2023-05-05T01:54:11.590Z,98736.66
2023-05-05T01:57:21.288Z,98732.25
2023-05-05T02:00:30.649Z,98731.28
2023-05-05T02:03:43.347Z,98726.81
2023-05-05T02:06:53.387Z,98730.25
2023-05-05T02:10:06.497Z,98724.19
2023-05-05T02:13:15.712Z,98732.91
2023-05-05T02:16:25.583Z,98730.28
2023-05-05T02:19:42.662Z,98731.59
2023-05-05T02:22:52.942Z,98723.72
2023-05-05T02:26:06.513Z,98737.50
2023-05-05T02:29:21.837Z,98736.19
2023-05-05T02:32:36.760Z,98727.34
2023-05-05T02:35:50.370Z,98735.38
2023-05-05T02:39:03.850Z,98734.19
2023-05-05T02:42:23.300Z,98736.31
2023-05-05T02:45:32.041Z,98743.69
2023-05-05T02:48:38.873Z,98742.09
2023-05-05T02:51:47.295Z,98740.28
2023-05-05T02:55:01.470Z,98744.56
2023-05-05T02:58:27.333Z,98743.72
2023-05-05T03:02:06.364Z,98744.22
2023-05-05T03:05:22.073Z,98748.78
2023-05-05T03:08:43.817Z,98743.31
2023-05-05T03:12:02.469Z,98739.38
2023-05-05T03:15:14.139Z,98734.63
2023-05-05T03:18:24.306Z,98740.91
2023-05-05T03:21:37.716Z,98749.06
2023-05-05T03:24:53.457Z,98753.00
2023-05-05T03:28:03.373Z,98751.81
2023-05-05T03:31:09.450Z,98750.69
2023-05-05T03:34:17.750Z,98751.16
2023-05-05T03:37:26.444Z,98750.53
2023-05-05T03:40:43.622Z,98748.25
2023-05-05T03:43:53.089Z,98734.31
2023-05-05T03:46:59.619Z,98741.69
2023-05-05T03:50:09.677Z,98748.94
2023-05-05T03:53:16.273Z,98748.63
2023-05-05T03:56:25.524Z,98753.41
2023-05-05T03:59:32.130Z,98740.63
2023-05-05T04:02:37.964Z,98742.78
2023-05-05T04:05:45.950Z,98742.94
2023-05-05T04:08:55.157Z,98750.34
2023-05-05T04:12:04.163Z,98751.16
2023-05-05T04:15:11.697Z,98756.25
2023-05-05T04:18:19.682Z,98759.34
2023-05-05T04:21:25.916Z,98751.16
2023-05-05T04:24:32.632Z,98751.31
2023-05-05T04:27:41.044Z,98755.38
2023-05-05T04:30:48.184Z,98751.28
2023-05-05T04:33:54.116Z,98757.16
2023-05-05T04:37:00.637Z,98754.97
2023-05-05T04:40:07.098Z,98755.09
2023-05-05T04:43:18.030Z,98765.91
2023-05-05T04:46:23.866Z,98771.16
2023-05-05T04:49:32.838Z,98768.53
2023-05-05T04:52:38.802Z,98773.94
2023-05-05T04:55:45.474Z,98782.19
2023-05-05T04:58:53.997Z,98793.19
2023-05-05T05:02:00.469Z,98789.91
2023-05-05T05:05:06.960Z,98792.91
2023-05-05T05:08:13.422Z,98793.25
2023-05-05T05:11:19.271Z,98785.56
2023-05-05T05:14:28.963Z,98793.13
2023-05-05T05:17:34.931Z,98803.84
2023-05-05T05:20:41.373Z,98805.84
2023-05-05T05:23:47.823Z,98797.97
2023-05-05T05:26:54.370Z,98799.63
2023-05-05T05:30:05.353Z,98800.59
2023-05-05T05:33:12.876Z,98808.34
2023-05-05T05:36:19.494Z,98813.75
2023-05-05T05:39:26.204Z,98812.94
2023-05-05T05:42:32.348Z,98823.97
2023-05-05T05:45:41.449Z,98811.47
2023-05-05T05:48:47.714Z,98816.56
2023-05-05T05:51:56.959Z,98821.31
2023-05-05T05:55:03.460Z,98812.28
2023-05-05T05:58:10.122Z,98816.41
2023-05-05T06:01:18.900Z,98822.59
2023-05-05T06:04:27.965Z,98824.41
2023-05-05T06:07:33.992Z,98817.84
2023-05-05T06:10:40.567Z,98809.72
2023-05-05T06:13:50.962Z,98814.44
2023-05-05T06:17:00.145Z,98809.31
2023-05-05T06:20:09.449Z,98810.88
2023-05-05T06:23:16.094Z,98805.97
2023-05-05T06:26:28.711Z,98807.94
2023-05-05T06:29:35.137Z,98811.16
2023-05-05T06:32:43.521Z,98806.09
2023-05-05T06:35:50.165Z,98812.59
2023-05-05T06:38:55.776Z,98808.19
2023-05-05T06:42:02.260Z,98815.69
2023-05-05T06:45:09.550Z,98821.38
2023-05-05T06:48:19.249Z,98812.72
2023-05-05T06:51:25.315Z,98811.28
2023-05-05T06:54:31.726Z,98803.53
2023-05-05T06:57:39.170Z,98804.09
2023-05-05T07:00:45.709Z,98805.28
2023-05-05T07:03:54.457Z,98802.13
2023-05-05T07:07:00.942Z,98801.34
2023-05-05T07:10:07.939Z,98797.59
2023-05-05T07:13:14.806Z,98797.88
2023-05-05T07:16:20.538Z,98794.03
2023-05-05T07:19:29.742Z,98784.97
2023-05-05T07:22:35.610Z,98789.81
2023-05-05T07:25:42.603Z,98788.34
2023-05-05T07:28:48.333Z,98793.97
2023-05-05T07:31:54.742Z,98787.03
2023-05-05T07:35:03.027Z,98784.28
2023-05-05T07:38:10.885Z,98780.56
2023-05-05T07:41:16.757Z,98781.31
2023-05-05T07:44:23.351Z,98782.25
2023-05-05T07:47:29.034Z,98777.34
2023-05-05T07:50:39.059Z,98772.56
2023-05-05T07:53:44.861Z,98769.91
2023-05-05T07:56:51.446Z,98765.22
2023-05-05T07:59:57.050Z,98760.97
2023-05-05T08:03:03.528Z,98762.66
2023-05-05T08:06:16.277Z,98753.72
2023-05-05T08:09:22.717Z,98764.75
2023-05-05T08:12:28.492Z,98765.66
2023-05-05T08:15:34.833Z,98762.22
2023-05-05T08:18:40.683Z,98761.88
2023-05-05T08:21:49.766Z,98760.94
2023-05-05T08:24:56.000Z,98760.47
2023-05-05T08:28:02.595Z,98750.16
2023-05-05T08:31:08.935Z,98759.78
2023-05-05T08:34:15.304Z,98751.38
2023-05-05T08:37:23.632Z,98750.56
2023-05-05T08:40:36.688Z,98752.06
2023-05-05T08:43:42.620Z,98749.72
2023-05-05T08:46:51.607Z,98749.81
2023-05-05T08:50:00.050Z,98746.03
2023-05-05T08:53:14.024Z,98741.34
2023-05-05T08:56:24.429Z,98735.78
2023-05-05T08:59:33.709Z,98731.66
2023-05-05T09:02:40.798Z,98729.78
2023-05-05T09:05:48.461Z,98726.22
2023-05-05T09:08:59.459Z,98728.97
2023-05-05T09:12:06.485Z,98725.75
2023-05-05T09:15:14.622Z,98723.78
2023-05-05T09:18:21.036Z,98724.75
2023-05-05T09:21:29.551Z,98727.50
2023-05-05T09:24:38.612Z,98722.25
2023-05-05T09:27:48.447Z,98730.09
2023-05-05T09:30:55.060Z,98729.50
2023-05-05T09:34:01.308Z,98716.75
2023-05-05T09:37:07.868Z,98733.97
2023-05-05T09:40:18.691Z,98731.16
2023-05-05T09:43:27.339Z,98733.91
2023-05-05T09:46:33.380Z,98731.16
2023-05-05T09:49:42.089Z,98732.44
2023-05-05T09:52:58.694Z,98726.25
2023-05-05T09:56:08.978Z,98716.72
2023-05-05T09:59:15.103Z,98717.00
2023-05-05T10:02:21.469Z,98718.50
2023-05-05T10:05:27.197Z,98709.88
2023-05-05T10:08:35.051Z,98716.59
2023-05-05T10:11:47.955Z,98715.34
2023-05-05T10:14:59.001Z,98719.13
2023-05-05T10:18:09.265Z,98708.94
2023-05-05T10:21:25.152Z,98721.13
2023-05-05T10:24:42.991Z,98714.97
2023-05-05T10:28:02.476Z,98710.56
2023-05-05T10:31:25.833Z,98695.69
2023-05-05T10:34:43.788Z,98702.63
2023-05-05T10:37:51.351Z,98694.69
2023-05-05T10:41:00.957Z,98683.25
2023-05-05T10:44:11.138Z,98681.63
2023-05-05T10:47:18.969Z,98686.16
2023-05-05T10:50:41.911Z,98682.78
2023-05-05T10:54:03.473Z,98675.25
2023-05-05T10:57:14.999Z,98680.88
2023-05-05T11:00:56.554Z,98680.59
2023-05-05T11:04:27.148Z,98668.47
2023-05-05T11:07:34.637Z,98678.75
2023-05-05T11:10:47.930Z,98678.13
2023-05-05T11:14:25.911Z,98676.44
2023-05-05T11:17:49.533Z,98675.13
2023-05-05T11:21:15.845Z,98669.06
2023-05-05T11:24:32.225Z,98668.78
2023-05-05T11:28:09.092Z,98663.06
2023-05-05T11:31:27.036Z,98649.53
2023-05-05T11:34:35.750Z,98646.03
2023-05-05T11:37:42.507Z,98643.00
2023-05-05T11:40:51.517Z,98644.31
2023-05-05T11:44:15.685Z,98647.28
2023-05-05T11:47:34.113Z,98643.81
2023-05-05T11:50:41.029Z,98636.38
2023-05-05T11:53:49.742Z,98642.34
2023-05-05T11:56:57.403Z,98652.38
2023-05-05T12:00:09.287Z,98635.94
2023-05-05T12:03:18.031Z,98628.56
2023-05-05T12:06:24.710Z,98626.50
2023-05-05T12:09:30.977Z,98621.88
2023-05-05T12:12:41.595Z,98629.88
2023-05-05T12:15:47.392Z,98626.19
2023-05-05T12:19:08.752Z,98622.25
2023-05-05T12:22:21.547Z,98620.59
2023-05-05T12:25:27.938Z,98616.41
2023-05-05T12:28:48.045Z,98617.75
2023-05-05T12:31:54.788Z,98623.44
2023-05-05T12:35:03.868Z,98618.75
2023-05-05T12:38:10.447Z,98620.13
2023-05-05T12:41:22.622Z,98621.13
2023-05-05T12:44:38.911Z,98612.22
2023-05-05T12:47:45.140Z,98605.91
2023-05-05T12:50:54.551Z,98611.66
2023-05-05T12:54:10.777Z,98603.66
2023-05-05T12:57:17.264Z,98596.78
2023-05-05T13:00:26.211Z,98598.19
2023-05-05T13:03:32.769Z,98587.03
2023-05-05T13:06:42.864Z,98587.47
2023-05-05T13:09:50.983Z,98580.94
2023-05-05T13:12:59.546Z,98579.44
2023-05-05T13:16:06.074Z,98586.06
2023-05-05T13:19:11.940Z,98585.97
2023-05-05T13:22:20.943Z,98579.31
2023-05-05T13:25:27.064Z,98576.13
2023-05-05T13:28:33.473Z,98569.31
2023-05-05T13:31:39.207Z,98565.75
2023-05-05T13:34:45.687Z,98549.69
2023-05-05T13:37:53.920Z,98558.41
2023-05-05T13:41:00.567Z,98560.69
2023-05-05T13:44:06.192Z,98559.28
2023-05-05T13:47:14.195Z,98550.22
2023-05-05T13:50:19.876Z,98545.72
2023-05-05T13:53:29.125Z,98551.06
2023-05-05T13:56:34.857Z,98551.13
2023-05-05T13:59:41.390Z,98543.84
2023-05-05T14:02:47.235Z,98533.78
2023-05-05T14:05:53.666Z,98538.91
2023-05-05T14:09:02.019Z,98526.63
2023-05-05T14:12:09.404Z,98539.84
2023-05-05T14:15:15.529Z,98531.94
2023-05-05T14:18:25.115Z,98516.50
2023-05-05T14:21:31.915Z,98527.09
2023-05-05T14:24:40.942Z,98534.81
2023-05-05T14:27:46.704Z,98521.63
2023-05-05T14:30:53.209Z,98535.41
2023-05-05T14:33:58.998Z,98533.16
2023-05-05T14:37:06.353Z,98532.44
2023-05-05T14:40:15.239Z,98537.19
2023-05-05T14:43:22.124Z,98528.19
2023-05-05T14:46:28.171Z,98532.22
2023-05-05T14:49:34.730Z,98536.81
2023-05-05T14:52:40.868Z,98539.81
2023-05-05T14:55:49.811Z,98540.28
2023-05-05T14:58:56.087Z,98541.03
2023-05-05T15:02:02.604Z,98532.16
2023-05-05T15:05:10.697Z,98534.09
2023-05-05T15:08:18.949Z,98538.22
2023-05-05T15:11:27.280Z,98542.09
2023-05-05T15:14:33.803Z,98544.28
2023-05-05T15:17:42.024Z,98542.13
2023-05-05T15:20:48.492Z,98542.41
2023-05-05T15:23:54.196Z,98542.63
2023-05-05T15:27:03.203Z,98534.47
2023-05-05T15:30:14.277Z,98535.81
2023-05-05T15:33:20.709Z,98534.66
2023-05-05T15:36:26.424Z,98539.13
2023-05-05T15:39:33.066Z,98535.38
2023-05-05T15:42:41.457Z,98528.25
2023-05-05T15:45:47.895Z,98528.97
2023-05-05T15:48:53.673Z,98527.50
2023-05-05T15:52:00.062Z,98529.88
2023-05-05T15:55:07.118Z,98524.81
2023-05-05T15:58:16.351Z,98524.94
2023-05-05T16:01:22.088Z,98528.34
2023-05-05T16:04:28.803Z,98520.28
2023-05-05T16:07:34.405Z,98519.72
2023-05-05T16:10:40.840Z,98523.84
2023-05-05T16:13:49.130Z,98510.78
2023-05-05T16:16:55.561Z,98521.03
2023-05-05T16:20:03.202Z,98516.97
2023-05-05T16:23:09.637Z,98518.00
2023-05-05T16:26:15.282Z,98517.97
2023-05-05T16:29:24.272Z,98526.56
2023-05-05T16:32:30.004Z,98520.06
2023-05-05T16:35:36.473Z,98525.97
2023-05-05T16:38:44.054Z,98528.88
2023-05-05T16:41:50.412Z,98523.72
2023-05-05T16:44:58.645Z,98524.28
2023-05-05T16:48:07.421Z,98528.16
2023-05-05T16:51:14.806Z,98535.88
2023-05-05T16:54:21.408Z,98525.84
2023-05-05T16:57:27.272Z,98518.81
2023-05-05T17:00:36.502Z,98531.88
2023-05-05T17:03:42.445Z,98530.69
2023-05-05T17:06:48.847Z,98534.69
2023-05-05T17:09:54.420Z,98540.34
2023-05-05T17:13:00.792Z,98534.53
2023-05-05T17:16:09.403Z,98538.22
2023-05-05T17:19:15.906Z,98528.59
2023-05-05T17:22:21.982Z,98545.50
2023-05-05T17:25:28.791Z,98549.50
2023-05-05T17:28:34.403Z,98547.81
2023-05-05T17:31:43.567Z,98557.31
2023-05-05T17:34:49.204Z,98552.31
2023-05-05T17:37:55.606Z,98561.44
2023-05-05T17:41:01.375Z,98557.47
2023-05-05T17:44:08.197Z,98563.72
2023-05-05T17:47:16.405Z,98565.53
2023-05-05T17:50:25.909Z,98564.53
2023-05-05T17:53:31.891Z,98565.63
2023-05-05T17:56:38.440Z,98576.84
2023-05-05T17:59:44.043Z,98570.59
2023-05-05T18:02:53.364Z,98576.66
2023-05-05T18:05:59.060Z,98575.88
2023-05-05T18:09:05.420Z,98582.97
2023-05-05T18:12:11.453Z,98583.69
2023-05-05T18:15:17.933Z,98577.06
2023-05-05T18:18:26.573Z,98573.38
2023-05-05T18:21:32.926Z,98574.88
2023-05-05T18:24:38.509Z,98585.56
2023-05-05T18:27:45.135Z,98581.59
2023-05-05T18:30:50.741Z,98585.09
2023-05-05T18:33:59.888Z,98586.03
2023-05-05T18:37:05.559Z,98591.22
2023-05-05T18:40:13.453Z,98586.09
2023-05-05T18:43:19.107Z,98586.97
2023-05-05T18:49:33.834Z,98593.88
2023-05-05T18:52:40.301Z,98590.94
2023-05-05T18:55:47.316Z,98580.94
2023-05-05T18:58:53.890Z,98594.78
2023-05-05T19:02:00.965Z,98599.22
2023-05-05T19:05:11.924Z,98590.63
2023-05-05T19:08:18.086Z,98598.03
2023-05-05T19:11:24.487Z,98598.03
2023-05-05T19:14:30.029Z,98596.78
2023-05-05T19:17:36.575Z,98597.22
2023-05-05T19:20:47.417Z,98602.50
2023-05-05T19:23:56.835Z,98596.41
2023-05-05T19:27:03.179Z,98599.53
2023-05-05T19:30:12.896Z,98600.34
2023-05-05T19:33:19.246Z,98590.56
2023-05-05T19:36:28.614Z,98589.59
2023-05-05T19:39:34.339Z,98587.47
2023-05-05T19:42:40.760Z,98585.97
2023-05-05T19:45:46.409Z,98587.22
2023-05-05T19:48:52.977Z,98590.06
2023-05-05T19:52:01.238Z,98588.63
2023-05-05T19:55:10.696Z,98591.28
2023-05-05T19:58:16.405Z,98586.72
2023-05-05T20:01:22.974Z,98588.69
2023-05-05T20:04:28.785Z,98587.34
2023-05-05T20:07:37.732Z,98573.81
2023-05-05T20:10:43.463Z,98581.78
2023-05-05T20:13:51.024Z,98580.41
2023-05-05T20:16:56.845Z,98585.13
2023-05-05T20:20:03.275Z,98578.25
2023-05-05T20:23:11.511Z,98580.16
2023-05-05T20:26:18.137Z,98585.09
2023-05-05T20:29:24.026Z,98576.34
2023-05-05T20:32:30.756Z,98578.00
2023-05-05T20:35:37.317Z,98574.75
2023-05-05T20:38:46.924Z,98571.53
2023-05-05T20:41:52.699Z,98573.38
2023-05-05T20:44:59.456Z,98570.34
2023-05-05T20:48:05.549Z,98564.00
2023-05-05T20:51:12.126Z,98560.53
2023-05-05T20:54:20.876Z,98564.00
2023-05-05T20:57:27.322Z,98564.78
2023-05-05T21:00:33.118Z,98559.94
2023-05-05T21:03:40.205Z,98563.19
2023-05-05T21:06:46.183Z,98559.50
2023-05-05T21:09:55.271Z,98563.38
2023-05-05T21:13:00.840Z,98557.28
2023-05-05T21:16:08.055Z,98557.28
2023-05-05T21:19:13.602Z,98548.13
2023-05-05T21:22:20.365Z,98557.50
2023-05-05T21:25:30.829Z,98556.72
2023-05-05T21:28:37.223Z,98557.75
2023-05-05T21:31:44.284Z,98548.56
2023-05-05T21:34:50.873Z,98550.81
2023-05-05T21:37:56.471Z,98546.94
2023-05-05T21:41:05.593Z,98540.00
2023-05-05T21:44:11.393Z,98544.66
2023-05-05T21:47:17.754Z,98541.63
2023-05-05T21:50:23.437Z,98536.13
2023-05-05T21:53:30.223Z,98530.81
2023-05-05T21:56:39.506Z,98536.94
2023-05-05T21:59:46.063Z,98520.81
2023-05-05T22:02:51.779Z,98526.13
2023-05-05T22:05:58.268Z,98535.09
2023-05-05T22:09:04.095Z,98542.84
2023-05-05T22:12:13.140Z,98542.84
2023-05-05T22:15:20.162Z,98533.81
2023-05-05T22:18:26.681Z,98533.41
2023-05-05T22:21:32.620Z,98533.81
2023-05-05T22:24:39.014Z,98534.81
2023-05-05T22:27:47.329Z,98525.25
2023-05-05T22:30:53.953Z,98537.13
2023-05-05T22:33:59.730Z,98531.63
2023-05-05T22:37:06.261Z,98538.69
2023-05-05T22:40:15.780Z,98529.75
2023-05-05T22:43:24.753Z,98527.50
2023-05-05T22:46:30.453Z,98526.47
2023-05-05T22:49:37.048Z,98518.94
2023-05-05T22:52:42.832Z,98524.63
2023-05-05T22:55:49.441Z,98521.53
2023-05-05T22:58:57.623Z,98512.19
2023-05-05T23:02:04.186Z,98515.84
2023-05-05T23:05:11.333Z,98518.47
2023-05-05T23:08:17.947Z,98509.28
2023-05-05T23:11:23.688Z,98504.81
2023-05-05T23:14:32.914Z,98506.81
2023-05-05T23:17:39.607Z,98507.97
2023-05-05T23:20:45.940Z,98503.44
2023-05-05T23:23:51.676Z,98514.50
2023-05-05T23:26:58.778Z,98513.84
2023-05-05T23:30:07.945Z,98513.94
2023-05-05T23:33:14.491Z,98507.53
2023-05-05T23:36:20.245Z,98517.81
2023-05-05T23:39:26.649Z,98517.75
2023-05-05T23:42:32.357Z,98505.59
2023-05-05T23:45:41.647Z,98502.50
2023-05-05T23:48:47.406Z,98507.09
2023-05-05T23:51:53.802Z,98499.94
2023-05-05T23:54:59.390Z,98493.34
2023-05-05T23:58:06.008Z,98508.31
